createdAt,value
2018-06-10T00:01:08.964Z,51.99
2018-06-10T00:03:35.615Z,52.08
2018-06-10T00:06:02.231Z,52.03
2018-06-10T00:08:28.934Z,52.14
2018-06-10T00:10:58.891Z,52.10
2018-06-10T00:13:25.538Z,52.08
2018-06-10T00:15:52.217Z,52.03
2018-06-10T00:18:18.888Z,52.08
2018-06-10T00:20:45.625Z,52.09
2018-06-10T00:23:12.281Z,52.14
2018-06-10T00:25:38.941Z,52.14
2018-06-10T00:28:05.568Z,52.04
2018-06-10T00:30:32.257Z,52.18
2018-06-10T00:32:58.881Z,51.99
2018-06-10T00:35:25.532Z,52.10
2018-06-10T00:37:52.211Z,52.16
2018-06-10T00:40:18.867Z,51.93
2018-06-10T00:42:45.570Z,52.17
2018-06-10T00:45:12.268Z,52.16
2018-06-10T00:47:38.875Z,52.00
2018-06-10T00:50:05.622Z,52.18
2018-06-10T00:52:32.220Z,52.16
2018-06-10T00:54:58.930Z,52.24
2018-06-10T00:57:25.615Z,52.23
2018-06-10T00:59:52.304Z,52.14
2018-06-10T01:02:18.917Z,52.19
2018-06-10T01:04:45.630Z,52.13
2018-06-10T01:07:12.352Z,52.14
2018-06-10T01:09:39.034Z,52.18
2018-06-10T01:12:05.663Z,52.33
2018-06-10T01:14:32.357Z,52.47
2018-06-10T01:16:58.984Z,52.33
2018-06-10T01:19:25.670Z,52.27
2018-06-10T01:21:52.339Z,52.32
2018-06-10T01:24:19.026Z,52.30
2018-06-10T01:26:45.680Z,52.34
2018-06-10T01:29:12.365Z,52.28
2018-06-10T01:31:39.003Z,52.36
2018-06-10T01:34:05.652Z,52.22
2018-06-10T01:36:32.308Z,52.31
2018-06-10T01:38:58.958Z,52.39
2018-06-10T01:41:25.618Z,52.26
2018-06-10T01:43:52.259Z,52.36
2018-06-10T01:46:19.004Z,52.22
2018-06-10T01:48:45.689Z,52.24
2018-06-10T01:51:12.304Z,52.42
2018-06-10T01:53:38.985Z,52.40
2018-06-10T01:56:05.681Z,52.35
2018-06-10T01:58:32.379Z,52.27
2018-06-10T02:00:59.048Z,52.34
2018-06-10T02:03:25.700Z,52.26
2018-06-10T02:05:52.366Z,52.31
2018-06-10T02:08:19.025Z,52.33
2018-06-10T02:10:45.777Z,52.32
2018-06-10T02:13:12.425Z,52.39
2018-06-10T02:15:39.121Z,52.38
2018-06-10T02:18:05.727Z,52.36
2018-06-10T02:20:32.429Z,52.22
2018-06-10T02:22:59.073Z,52.41
2018-06-10T02:25:25.716Z,52.36
2018-06-10T02:27:52.376Z,52.37
2018-06-10T02:30:19.025Z,52.32
2018-06-10T02:32:45.727Z,52.43
2018-06-10T02:35:12.429Z,52.42
2018-06-10T02:37:39.084Z,52.31
2018-06-10T02:40:05.736Z,52.22
2018-06-10T02:42:32.445Z,52.32
2018-06-10T02:44:59.087Z,52.39
2018-06-10T02:47:25.740Z,52.30
2018-06-10T02:49:52.379Z,52.41
2018-06-10T02:52:19.111Z,52.25
2018-06-10T02:54:45.726Z,52.29
2018-06-10T02:57:12.392Z,52.30
2018-06-10T02:59:39.067Z,52.25
2018-06-10T03:02:05.730Z,52.33
2018-06-10T03:04:32.372Z,52.31
2018-06-10T03:06:59.064Z,52.26
2018-06-10T03:09:25.704Z,52.32
2018-06-10T03:11:52.429Z,52.08
2018-06-10T03:14:19.043Z,52.31
2018-06-10T03:16:45.695Z,52.33
2018-06-10T03:19:12.352Z,52.35
2018-06-10T03:21:39.049Z,52.36
2018-06-10T03:24:05.743Z,52.42
2018-06-10T03:26:32.402Z,52.37
2018-06-10T03:28:59.022Z,52.38
2018-06-10T03:31:25.676Z,52.38
2018-06-10T03:33:52.315Z,52.34
2018-06-10T03:36:19.048Z,52.32
2018-06-10T03:38:45.692Z,52.28
2018-06-10T03:41:12.310Z,52.28
2018-06-10T03:43:38.968Z,52.09
2018-06-10T03:46:05.659Z,52.36
2018-06-10T03:48:32.369Z,52.16
2018-06-10T03:50:59.040Z,52.32
2018-06-10T03:53:25.700Z,52.37
2018-06-10T03:55:52.324Z,52.43
2018-06-10T03:58:18.972Z,52.39
2018-06-10T04:00:45.711Z,52.32
2018-06-10T04:03:12.358Z,52.45
2018-06-10T04:05:39.006Z,52.37
2018-06-10T04:08:05.685Z,52.42
2018-06-10T04:10:32.388Z,52.41
2018-06-10T04:12:59.077Z,52.35
2018-06-10T04:15:25.726Z,52.37
2018-06-10T04:17:52.371Z,52.47
2018-06-10T04:20:19.063Z,52.42
2018-06-10T04:22:45.730Z,52.44
2018-06-10T04:25:12.444Z,52.51
2018-06-10T04:27:39.090Z,52.42
2018-06-10T04:30:05.700Z,52.21
2018-06-10T04:32:32.361Z,52.34
2018-06-10T04:34:59.040Z,52.37
2018-06-10T04:37:25.730Z,52.43
2018-06-10T04:39:52.375Z,52.27
2018-06-10T04:42:19.026Z,52.30
2018-06-10T04:44:45.921Z,52.32
2018-06-10T04:47:12.615Z,52.28
2018-06-10T04:49:39.200Z,52.27
2018-06-10T04:52:05.872Z,52.31
2018-06-10T04:54:32.541Z,52.38
2018-06-10T04:56:59.165Z,52.30
2018-06-10T04:59:25.858Z,52.12
2018-06-10T05:01:52.481Z,52.17
2018-06-10T05:04:19.179Z,52.12
2018-06-10T05:06:45.831Z,52.18
2018-06-10T05:09:12.632Z,52.06
2018-06-10T05:11:39.271Z,51.93
2018-06-10T05:14:06.013Z,52.17
2018-06-10T05:16:32.623Z,52.13
2018-06-10T05:18:59.302Z,52.05
2018-06-10T05:21:25.963Z,51.90
2018-06-10T05:23:52.579Z,51.77
2018-06-10T05:26:19.303Z,51.48
2018-06-10T05:28:45.968Z,51.34
2018-06-10T05:31:12.600Z,51.20
2018-06-10T05:33:39.295Z,51.08
2018-06-10T05:36:05.970Z,50.50
2018-06-10T05:38:32.629Z,49.89
2018-06-10T05:40:59.251Z,49.21
2018-06-10T05:43:25.926Z,49.02
2018-06-10T05:45:52.540Z,48.83
2018-06-10T05:48:19.206Z,48.08
2018-06-10T05:50:45.854Z,48.16
2018-06-10T05:53:12.519Z,47.68
2018-06-10T05:55:39.166Z,47.02
2018-06-10T05:58:05.895Z,46.72
2018-06-10T06:00:32.594Z,46.35
2018-06-10T06:02:59.213Z,46.22
2018-06-10T06:05:25.908Z,46.12
2018-06-10T06:07:52.614Z,45.57
2018-06-10T06:10:19.297Z,45.49
2018-06-10T06:12:45.933Z,45.35
2018-06-10T06:15:12.589Z,44.72
2018-06-10T06:17:39.279Z,44.78
2018-06-10T06:20:05.946Z,44.60
2018-06-10T06:22:32.604Z,44.46
2018-06-10T06:24:59.399Z,44.10
2018-06-10T06:27:26.105Z,44.03
2018-06-10T06:29:52.734Z,44.11
2018-06-10T06:32:19.426Z,43.76
2018-06-10T06:34:46.092Z,43.47
2018-06-10T06:37:12.836Z,43.46
2018-06-10T06:39:39.560Z,43.07
2018-06-10T06:42:06.224Z,43.19
2018-06-10T06:44:32.996Z,43.18
2018-06-10T06:46:59.645Z,43.24
2018-06-10T06:49:26.284Z,43.45
2018-06-10T06:51:52.982Z,43.62
2018-06-10T06:54:19.649Z,45.14
2018-06-10T06:56:46.299Z,45.32
2018-06-10T06:59:12.995Z,45.15
2018-06-10T07:01:39.662Z,44.69
2018-06-10T07:04:06.394Z,44.39
2018-06-10T07:06:33.051Z,43.70
2018-06-10T07:08:59.709Z,43.52
2018-06-10T07:11:26.386Z,43.26
2018-06-10T07:13:53.088Z,43.16
2018-06-10T07:16:19.710Z,43.12
2018-06-10T07:18:46.405Z,42.91
2018-06-10T07:21:13.068Z,42.41
2018-06-10T07:23:39.802Z,42.73
2018-06-10T07:26:06.376Z,42.36
2018-06-10T07:28:33.056Z,42.43
2018-06-10T07:30:59.753Z,42.21
2018-06-10T07:33:26.419Z,41.92
2018-06-10T07:35:53.127Z,41.98
2018-06-10T07:38:19.736Z,41.59
2018-06-10T07:40:46.376Z,41.94
2018-06-10T07:43:13.068Z,41.38
2018-06-10T07:45:39.807Z,41.85
2018-06-10T07:48:06.416Z,41.57
2018-06-10T07:50:33.064Z,41.47
2018-06-10T07:52:59.765Z,41.29
2018-06-10T07:55:29.752Z,41.41
2018-06-10T07:57:56.483Z,41.17
2018-06-10T08:00:23.099Z,41.01
2018-06-10T08:02:49.831Z,41.25
2018-06-10T08:05:16.444Z,40.96
2018-06-10T08:07:43.101Z,40.92
2018-06-10T08:10:09.799Z,40.99
2018-06-10T08:12:36.411Z,40.63
2018-06-10T08:15:03.067Z,40.92
2018-06-10T08:17:29.708Z,40.38
2018-06-10T08:19:56.403Z,40.92
2018-06-10T08:22:23.163Z,40.27
2018-06-10T08:24:49.785Z,40.40
2018-06-10T08:27:16.445Z,40.12
2018-06-10T08:29:43.146Z,40.38
2018-06-10T08:32:09.825Z,40.28
2018-06-10T08:34:36.475Z,40.03
2018-06-10T08:37:03.134Z,40.09
2018-06-10T08:39:29.898Z,39.90
2018-06-10T08:41:56.512Z,39.90
2018-06-10T08:44:23.175Z,39.93
2018-06-10T08:46:49.888Z,39.87
2018-06-10T08:49:16.546Z,39.74
2018-06-10T08:51:43.195Z,39.80
2018-06-10T08:54:09.851Z,39.75
2018-06-10T08:56:36.496Z,39.85
2018-06-10T08:59:03.157Z,39.86
2018-06-10T09:01:29.860Z,39.64
2018-06-10T09:03:56.506Z,39.98
2018-06-10T09:06:23.164Z,39.66
2018-06-10T09:08:49.850Z,39.97
2018-06-10T09:11:16.478Z,40.02
2018-06-10T09:13:43.175Z,39.84
2018-06-10T09:16:09.827Z,40.14
2018-06-10T09:18:36.527Z,40.11
2018-06-10T09:21:03.175Z,40.01
2018-06-10T09:23:29.872Z,40.07
2018-06-10T09:25:56.565Z,40.15
2018-06-10T09:28:23.303Z,40.07
2018-06-10T09:30:50.005Z,40.33
2018-06-10T09:33:16.666Z,40.13
2018-06-10T09:35:43.381Z,40.28
2018-06-10T09:38:10.035Z,40.24
2018-06-10T09:40:36.739Z,40.16
2018-06-10T09:43:05.059Z,40.10
2018-06-10T09:45:30.075Z,40.13
2018-06-10T09:47:56.772Z,40.05
2018-06-10T09:50:23.419Z,40.23
2018-06-10T09:52:50.137Z,40.42
2018-06-10T09:55:16.885Z,40.35
2018-06-10T09:57:43.428Z,40.23
2018-06-10T10:00:10.130Z,40.30
2018-06-10T10:02:36.831Z,40.35
2018-06-10T10:05:03.512Z,40.49
2018-06-10T10:07:30.163Z,40.54
2018-06-10T10:09:56.851Z,40.48
2018-06-10T10:12:23.522Z,40.38
2018-06-10T10:14:50.204Z,40.66
2018-06-10T10:17:16.848Z,40.68
2018-06-10T10:19:43.530Z,40.49
2018-06-10T10:22:10.176Z,40.53
2018-06-10T10:24:36.845Z,40.61
2018-06-10T10:27:03.546Z,40.83
2018-06-10T10:29:30.167Z,40.60
2018-06-10T10:31:56.904Z,40.60
2018-06-10T10:34:23.504Z,40.67
2018-06-10T10:36:50.128Z,40.82
2018-06-10T10:39:16.792Z,40.67
2018-06-10T10:41:43.470Z,40.64
2018-06-10T10:44:10.194Z,40.84
2018-06-10T10:46:36.776Z,40.80
2018-06-10T10:49:03.431Z,40.55
2018-06-10T10:51:30.079Z,40.83
2018-06-10T10:53:56.746Z,40.67
2018-06-10T10:56:23.446Z,40.67
2018-06-10T10:58:50.106Z,40.93
2018-06-10T11:01:16.767Z,40.85
2018-06-10T11:03:43.426Z,40.70
2018-06-10T11:06:12.984Z,40.90
2018-06-10T11:08:39.662Z,40.81
2018-06-10T11:11:06.304Z,40.72
2018-06-10T11:13:32.970Z,40.88
2018-06-10T11:15:59.671Z,40.90
2018-06-10T11:18:26.350Z,40.68
2018-06-10T11:20:53.011Z,40.81
2018-06-10T11:23:19.667Z,41.03
2018-06-10T11:25:46.321Z,40.81
2018-06-10T11:28:12.966Z,40.83
2018-06-10T11:30:39.625Z,40.89
2018-06-10T11:33:06.304Z,40.87
2018-06-10T11:35:32.955Z,40.76
2018-06-10T11:37:59.617Z,40.82
2018-06-10T11:40:26.294Z,40.98
2018-06-10T11:42:52.925Z,40.69
2018-06-10T11:45:19.648Z,40.82
2018-06-10T11:47:46.359Z,40.97
2018-06-10T11:50:13.010Z,41.36
2018-06-10T11:52:39.728Z,43.30
2018-06-10T11:55:06.320Z,43.12
2018-06-10T11:57:32.983Z,43.71
2018-06-10T11:59:59.648Z,43.29
2018-06-10T12:02:26.333Z,43.18
2018-06-10T12:04:52.981Z,43.61
2018-06-10T12:07:19.655Z,43.48
2018-06-10T12:09:46.336Z,43.67
2018-06-10T12:12:12.960Z,43.71
2018-06-10T12:14:39.621Z,43.41
2018-06-10T12:17:06.399Z,43.09
2018-06-10T12:19:33.006Z,43.32
2018-06-10T12:21:59.674Z,42.97
2018-06-10T12:24:26.323Z,42.96
2018-06-10T12:26:52.972Z,42.59
2018-06-10T12:29:19.687Z,42.44
2018-06-10T12:31:46.292Z,42.26
2018-06-10T12:34:12.943Z,41.91
2018-06-10T12:36:39.666Z,41.85
2018-06-10T12:39:06.260Z,41.87
2018-06-10T12:41:32.932Z,41.56
2018-06-10T12:43:59.616Z,41.40
2018-06-10T12:46:26.239Z,41.41
2018-06-10T12:48:52.932Z,41.32
2018-06-10T12:51:19.684Z,41.07
2018-06-10T12:53:46.337Z,40.89
2018-06-10T12:56:13.020Z,41.06
2018-06-10T12:58:39.639Z,40.71
2018-06-10T13:01:06.328Z,40.63
2018-06-10T13:03:32.953Z,40.74
2018-06-10T13:05:59.597Z,40.60
2018-06-10T13:08:26.257Z,40.83
2018-06-10T13:10:52.960Z,41.41
2018-06-10T13:13:19.591Z,42.30
2018-06-10T13:15:46.277Z,43.22
2018-06-10T13:18:12.900Z,42.37
2018-06-10T13:20:39.598Z,42.50
2018-06-10T13:23:06.268Z,42.49
2018-06-10T13:25:32.944Z,42.96
2018-06-10T13:27:59.568Z,42.54
2018-06-10T13:30:26.221Z,42.18
2018-06-10T13:32:52.930Z,42.19
2018-06-10T13:35:19.547Z,42.14
2018-06-10T13:37:46.203Z,41.79
2018-06-10T13:40:12.851Z,41.51
2018-06-10T13:42:39.519Z,41.43
2018-06-10T13:45:06.179Z,41.19
2018-06-10T13:47:32.849Z,40.94
2018-06-10T13:49:59.509Z,41.01
2018-06-10T13:52:26.211Z,40.73
2018-06-10T13:54:52.826Z,40.43
2018-06-10T13:57:19.553Z,40.59
2018-06-10T13:59:46.195Z,40.43
2018-06-10T14:02:12.865Z,40.31
2018-06-10T14:04:39.515Z,40.33
2018-06-10T14:07:06.201Z,40.05
2018-06-10T14:09:32.822Z,40.11
2018-06-10T14:11:59.476Z,40.29
2018-06-10T14:14:26.162Z,41.22
2018-06-10T14:16:52.792Z,41.52
2018-06-10T14:19:19.487Z,41.75
2018-06-10T14:21:46.102Z,42.51
2018-06-10T14:24:15.484Z,42.04
2018-06-10T14:26:42.140Z,41.62
2018-06-10T14:29:09.808Z,41.24
2018-06-10T14:31:35.497Z,41.18
2018-06-10T14:34:02.171Z,41.00
2018-06-10T14:36:28.819Z,41.05
2018-06-10T14:38:55.548Z,40.71
2018-06-10T14:41:22.187Z,40.51
2018-06-10T14:43:48.852Z,40.41
2018-06-10T14:46:15.768Z,40.39
2018-06-10T14:48:42.532Z,40.25
2018-06-10T14:51:09.499Z,40.10
2018-06-10T14:53:36.377Z,40.28
2018-06-10T14:56:03.028Z,40.69
2018-06-10T14:58:29.690Z,42.29
2018-06-10T15:00:56.377Z,42.65
2018-06-10T15:03:23.060Z,41.98
2018-06-10T15:05:49.749Z,42.02
2018-06-10T15:08:16.524Z,42.50
2018-06-10T15:10:43.419Z,42.03
2018-06-10T15:13:11.477Z,41.84
2018-06-10T15:15:36.842Z,41.72
2018-06-10T15:18:03.551Z,41.67
2018-06-10T15:20:31.578Z,41.81
2018-06-10T15:22:56.949Z,41.77
2018-06-10T15:25:23.802Z,42.39
2018-06-10T15:27:50.432Z,42.29
2018-06-10T15:30:17.081Z,43.48
2018-06-10T15:32:43.785Z,43.91
2018-06-10T15:35:10.581Z,44.16
2018-06-10T15:37:37.211Z,43.69
2018-06-10T15:40:03.930Z,43.05
2018-06-10T15:42:30.615Z,42.82
2018-06-10T15:44:57.226Z,42.66
2018-06-10T15:47:23.888Z,42.58
2018-06-10T15:49:50.541Z,42.50
2018-06-10T15:52:17.576Z,42.26
2018-06-10T15:54:44.219Z,42.33
2018-06-10T15:57:11.147Z,42.22
2018-06-10T15:59:37.768Z,42.60
2018-06-10T16:02:04.470Z,43.10
2018-06-10T16:04:31.132Z,43.74
2018-06-10T16:06:59.026Z,44.72
2018-06-10T16:09:25.529Z,44.95
2018-06-10T16:11:52.193Z,45.45
2018-06-10T16:14:18.820Z,45.52
2018-06-10T16:16:46.466Z,45.79
2018-06-10T16:19:14.123Z,45.82
2018-06-10T16:21:40.632Z,46.48
2018-06-10T16:24:07.395Z,46.16
2018-06-10T16:26:34.098Z,46.52
2018-06-10T16:29:00.772Z,46.44
2018-06-10T16:31:27.434Z,46.48
2018-06-10T16:33:54.091Z,46.45
2018-06-10T16:36:20.778Z,45.94
2018-06-10T16:38:47.445Z,46.67
2018-06-10T16:41:14.094Z,46.55
2018-06-10T16:43:40.811Z,46.65
2018-06-10T16:46:07.508Z,46.92
2018-06-10T16:48:34.246Z,46.09
2018-06-10T16:51:00.938Z,46.01
2018-06-10T16:53:27.564Z,45.88
2018-06-10T16:55:55.236Z,45.66
2018-06-10T16:58:21.760Z,45.37
2018-06-10T17:00:49.072Z,45.00
2018-06-10T17:03:16.949Z,44.78
2018-06-10T17:05:43.973Z,44.53
2018-06-10T17:08:11.009Z,44.37
2018-06-10T17:10:37.581Z,44.33
2018-06-10T17:13:04.236Z,43.98
2018-06-10T17:15:30.904Z,43.90
2018-06-10T17:17:57.553Z,43.64
2018-06-10T17:20:24.259Z,43.54
2018-06-10T17:22:50.918Z,43.38
2018-06-10T17:25:17.600Z,43.31
2018-06-10T17:27:44.236Z,43.19
2018-06-10T17:30:10.962Z,43.53
2018-06-10T17:32:37.628Z,44.53
2018-06-10T17:35:04.245Z,45.05
2018-06-10T17:37:30.930Z,45.63
2018-06-10T17:39:57.542Z,45.81
2018-06-10T17:42:24.203Z,46.32
2018-06-10T17:44:50.854Z,46.67
2018-06-10T17:47:17.598Z,46.70
2018-06-10T17:49:44.293Z,46.70
2018-06-10T17:52:10.987Z,47.15
2018-06-10T17:54:37.625Z,47.08
2018-06-10T17:57:04.388Z,47.20
2018-06-10T17:59:31.017Z,47.12
2018-06-10T18:01:57.647Z,47.62
2018-06-10T18:04:24.295Z,47.66
2018-06-10T18:06:50.994Z,47.57
2018-06-10T18:09:17.597Z,47.71
2018-06-10T18:11:44.258Z,47.75
2018-06-10T18:14:11.045Z,47.78
2018-06-10T18:16:37.807Z,47.78
2018-06-10T18:19:11.272Z,47.95
2018-06-10T18:21:37.916Z,47.99
2018-06-10T18:24:11.923Z,48.11
2018-06-10T18:26:38.670Z,48.31
2018-06-10T18:29:11.549Z,48.26
2018-06-10T18:31:44.695Z,48.30
2018-06-10T18:34:11.329Z,48.32
2018-06-10T18:36:37.949Z,48.43
2018-06-10T18:39:04.648Z,48.36
2018-06-10T18:41:31.270Z,48.42
2018-06-10T18:43:57.927Z,48.40
2018-06-10T18:46:24.626Z,48.53
2018-06-10T18:48:51.267Z,48.65
2018-06-10T18:51:17.921Z,48.79
2018-06-10T18:53:44.570Z,48.77
2018-06-10T18:56:11.215Z,48.58
2018-06-10T18:58:37.877Z,48.64
2018-06-10T19:01:04.532Z,48.64
2018-06-10T19:03:31.233Z,48.65
2018-06-10T19:05:57.851Z,48.88
2018-06-10T19:08:30.453Z,48.72
2018-06-10T19:11:04.010Z,48.66
2018-06-10T19:13:37.603Z,48.66
2018-06-10T19:16:04.285Z,48.61
2018-06-10T19:18:36.867Z,48.71
2018-06-10T19:21:03.509Z,48.64
2018-06-10T19:23:36.788Z,48.68
2018-06-10T19:26:03.473Z,48.58
2018-06-10T19:28:37.037Z,48.61
2018-06-10T19:31:10.227Z,48.54
2018-06-10T19:33:43.728Z,48.64
2018-06-10T19:36:10.425Z,48.48
2018-06-10T19:38:37.048Z,48.62
2018-06-10T19:41:09.781Z,48.59
2018-06-10T19:43:43.676Z,48.46
2018-06-10T19:46:15.906Z,48.53
2018-06-10T19:48:48.525Z,48.54
2018-06-10T19:51:22.245Z,48.48
2018-06-10T19:53:48.895Z,48.52
2018-06-10T19:56:15.582Z,48.40
2018-06-10T19:58:48.998Z,48.33
2018-06-10T20:01:23.139Z,48.22
2018-06-10T20:03:56.062Z,48.32
2018-06-10T20:06:22.685Z,48.22
2018-06-10T20:08:56.479Z,48.27
2018-06-10T20:11:23.140Z,48.21
2018-06-10T20:13:56.129Z,48.26
2018-06-10T20:16:22.866Z,48.06
2018-06-10T20:18:56.700Z,48.08
2018-06-10T20:21:23.338Z,48.03
2018-06-10T20:23:57.596Z,47.97
2018-06-10T20:26:24.261Z,47.95
2018-06-10T20:28:50.942Z,48.02
2018-06-10T20:31:23.520Z,47.93
2018-06-10T20:33:56.502Z,47.91
2018-06-10T20:36:30.131Z,47.89
2018-06-10T20:38:56.789Z,47.87
2018-06-10T20:41:23.443Z,47.86
2018-06-10T20:43:50.157Z,47.74
2018-06-10T20:46:16.781Z,47.76
2018-06-10T20:48:43.504Z,47.70
2018-06-10T20:51:17.000Z,47.67
2018-06-10T20:53:50.685Z,47.56
2018-06-10T20:56:17.341Z,47.39
2018-06-10T20:58:50.931Z,47.47
2018-06-10T21:01:24.898Z,47.51
2018-06-10T21:03:51.594Z,47.44
2018-06-10T21:06:24.081Z,47.41
2018-06-10T21:08:50.738Z,47.34
2018-06-10T21:11:24.358Z,47.29
2018-06-10T21:13:57.907Z,47.19
2018-06-10T21:16:24.569Z,47.09
2018-06-10T21:18:58.550Z,47.10
2018-06-10T21:21:25.209Z,47.13
2018-06-10T21:23:58.640Z,47.16
2018-06-10T21:26:25.327Z,47.06
2018-06-10T21:28:58.641Z,47.06
2018-06-10T21:31:25.256Z,46.99
2018-06-10T21:33:51.899Z,47.05
2018-06-10T21:36:25.474Z,46.98
2018-06-10T21:38:58.997Z,47.00
2018-06-10T21:41:31.835Z,47.01
2018-06-10T21:44:04.648Z,47.02
2018-06-10T21:46:31.291Z,46.94
2018-06-10T21:49:05.528Z,46.96
2018-06-10T21:51:32.211Z,46.94
2018-06-10T21:54:05.681Z,46.92
2018-06-10T21:56:39.677Z,46.87
2018-06-10T21:59:06.324Z,46.89
2018-06-10T22:01:39.986Z,46.75
2018-06-10T22:04:12.874Z,46.75
2018-06-10T22:06:39.537Z,46.83
2018-06-10T22:09:13.932Z,46.84
2018-06-10T22:11:40.627Z,46.66
2018-06-10T22:14:14.267Z,46.75
2018-06-10T22:16:40.913Z,46.65
2018-06-10T22:19:13.687Z,46.66
2018-06-10T22:21:46.939Z,46.76
2018-06-10T22:24:13.617Z,46.73
2018-06-10T22:26:47.793Z,46.66
2018-06-10T22:29:14.441Z,46.69
2018-06-10T22:31:47.899Z,46.60
2018-06-10T22:34:14.489Z,46.64
2018-06-10T22:36:48.732Z,46.65
2018-06-10T22:39:15.372Z,46.66
2018-06-10T22:41:49.682Z,46.74
2018-06-10T22:44:16.332Z,46.62
2018-06-10T22:46:49.404Z,46.62
2018-06-10T22:49:23.688Z,46.65
2018-06-10T22:51:50.346Z,46.60
2018-06-10T22:54:17.037Z,46.68
2018-06-10T22:56:50.284Z,46.69
2018-06-10T22:59:16.960Z,46.63
2018-06-10T23:01:50.784Z,46.54
2018-06-10T23:04:24.636Z,46.68
2018-06-10T23:06:58.709Z,46.62
2018-06-10T23:09:25.403Z,46.54
2018-06-10T23:11:59.559Z,46.62
2018-06-10T23:14:26.278Z,46.64
2018-06-10T23:16:52.900Z,46.64
2018-06-10T23:19:26.378Z,46.56
2018-06-10T23:21:53.062Z,46.54
2018-06-10T23:24:26.244Z,46.59
2018-06-10T23:26:52.866Z,46.60
2018-06-10T23:29:26.347Z,46.54
2018-06-10T23:31:52.990Z,46.52
2018-06-10T23:34:26.841Z,46.61
2018-06-10T23:37:00.030Z,46.59
2018-06-10T23:39:33.172Z,46.59
2018-06-10T23:41:59.828Z,46.63
2018-06-10T23:44:26.477Z,46.58
2018-06-10T23:46:59.692Z,46.54
2018-06-10T23:49:26.342Z,46.59
2018-06-10T23:51:59.563Z,46.59
2018-06-10T23:54:26.222Z,46.61
2018-06-10T23:57:00.528Z,46.62
2018-06-10T23:59:27.179Z,46.56
